Fecha, hora, temperatura, viento dirección y velocidad, humedad y presión.

  • 16-01-2019 16:00:00 | 3.60°C | Oeste |3.00 km/h | 70.00% | 808.90 hPa
  • 16-01-2019 15:00:00 | 5.50°C | Noroeste |8.00 km/h | 56.00% | 809.00 hPa
  • 16-01-2019 14:00:00 | 5.90°C | Noroeste |7.00 km/h | 51.00% | 809.40 hPa
  • 16-01-2019 13:00:00 | 6.40°C | Noroeste |3.00 km/h | 47.00% | 809.80 hPa
  • 16-01-2019 12:00:00 | 6.70°C | Calma |0.00 km/h | 43.00% | 810.40 hPa
  • 16-01-2019 11:00:00 | 4.20°C | Nordeste |2.00 km/h | 46.00% | 810.40 hPa
  • 16-01-2019 10:00:00 | 2.30°C | Norte |7.00 km/h | 51.00% | 810.30 hPa
  • 16-01-2019 09:00:00 | 0.40°C | Norte |6.00 km/h | 55.00% | 810.10 hPa
  • 16-01-2019 08:00:00 | 0.40°C | Noroeste |5.00 km/h | 57.00% | 810.00 hPa
  • 16-01-2019 07:00:00 | 0.70°C | Nordeste |7.00 km/h | 56.00% | 810.00 hPa
  • 16-01-2019 06:00:00 | 1.00°C | Nordeste |4.00 km/h | 55.00% | 810.10 hPa
  • 16-01-2019 05:00:00 | 1.20°C | Nordeste |4.00 km/h | 54.00% | 810.60 hPa
  • 16-01-2019 04:00:00 | 2.00°C | Norte |8.00 km/h | 46.00% | 811.10 hPa
  • 16-01-2019 03:00:00 | 2.60°C | Noroeste |6.00 km/h | 41.00% | 811.10 hPa
  • 16-01-2019 02:00:00 | 1.70°C | Sur |13.00 km/h | 46.00% | 811.40 hPa
  • 16-01-2019 01:00:00 | 1.00°C | Sudeste |15.00 km/h | 68.00% | 811.70 hPa
  • 16-01-2019 00:00:00 | 1.30°C | Sudeste |20.00 km/h | 58.00% | 812.00 hPa
  • 15-01-2019 23:00:00 | 1.20°C | Sur |15.00 km/h | 67.00% | 812.30 hPa
  • 15-01-2019 22:00:00 | 2.70°C | Sur |5.00 km/h | 47.00% | 812.30 hPa
  • 15-01-2019 21:00:00 | 3.90°C | Oeste |5.00 km/h | 43.00% | 812.40 hPa
  • 15-01-2019 20:00:00 | 3.70°C | Noroeste |2.00 km/h | 40.00% | 812.30 hPa
  • 15-01-2019 19:00:00 | 3.50°C | Este |3.00 km/h | 47.00% | 812.20 hPa
  • 15-01-2019 18:00:00 | 3.90°C | Sur |11.00 km/h | 57.00% | 812.10 hPa
  • 15-01-2019 17:00:00 | 7.00°C | Sur |12.00 km/h | 46.00% | 812.20 hPa
    • diseño web asturias Información sobre el estado de las mareas, altura de la marejada, temperatura del agua y otros datos de Gijón en Asturias.

      Surf Gijón